Reecon Whale — 9HA2885 — position and weather

sailwx.info

Track history (hours):
 
Tides and Currents Weather Stations Pressure Air Temp Water Temp Dewpoint Dewpoint Depression Visibility Wind Speed Wind Dir Waves Ship Positions

Reecon Whale

Last reported at 2015-Mar-05 07:32 UTC. Time now 2015-Mar-07 01:43 UTC.
Position N 37°27' E 023°40'.

Length 145 m; draft 8.6 m.

Type: Ship. MMSI: 256579000.

Date/timePositionNaut miles runAvg speedWind from/ knotsBaromVisibWave heightAir tempDewpointWater temp
2015-Mar-05 07:32N 37°27' E 023°40'1111.5
2015-Mar-05 06:34N 37°38' E 023°42'1111.4
2015-Mar-05 05:34N 37°48' E 023°38'9 9.1
2015-Mar-05 04:34N 37°57' E 023°36'0 0.0
2015-Mar-05 03:33N 37°57' E 023°36'0 0.0
2015-Mar-05 02:33N 37°57' E 023°36'0 0.0
2015-Mar-05 01:33N 37°57' E 023°36'0 0.0
2015-Mar-05 00:33N 37°57' E 023°36'0 0.0
2015-Mar-04 23:33N 37°57' E 023°36'0 0.0
2015-Mar-04 22:33N 37°57' E 023°36'0 0.0
2015-Mar-04 21:33N 37°57' E 023°36'0 0.0
2015-Mar-04 20:33N 37°57' E 023°36'0 0.0
2015-Mar-04 19:33N 37°57' E 023°36'0 0.0
2015-Mar-04 18:33N 37°57' E 023°36'0 0.0
2015-Mar-04 17:33N 37°57' E 023°36'0 0.0
2015-Mar-04 16:33N 37°57' E 023°36'0 0.0
2015-Mar-04 15:33N 37°57' E 023°36'0 0.0
2015-Mar-04 14:30N 37°57' E 023°36'0 0.0
2015-Mar-04 13:33N 37°57' E 023°36'0 0.0
2015-Mar-04 12:33N 37°57' E 023°36'0 0.0
2015-Mar-04 11:33N 37°57' E 023°36'0 0.0
2015-Mar-04 10:33N 37°57' E 023°36'0 0.0
2015-Mar-04 09:33N 37°57' E 023°36'0 0.0
2015-Mar-04 08:30N 37°57' E 023°36'0 0.0
2015-Mar-04 07:33N 37°57' E 023°36'0 0.0
2015-Mar-04 06:33N 37°57' E 023°36'0 0.1
2015-Mar-04 05:33N 37°57' E 023°36'2 2.3
2015-Mar-04 04:33N 37°55' E 023°36'2 2.1
2015-Mar-04 03:32N 37°54' E 023°34'0 0.0
2015-Mar-04 02:32N 37°54' E 023°34'0 0.0
2015-Mar-04 01:32N 37°54' E 023°34'0 0.0
2015-Mar-04 00:32N 37°55' E 023°34'0 0.0
2015-Mar-03 23:32N 37°55' E 023°34'0 0.1
2015-Mar-03 22:32N 37°54' E 023°34'1 0.6
2015-Mar-03 21:33N 37°54' E 023°34'7 6.9
2015-Mar-03 20:33N 37°49' E 023°40'9 8.6
2015-Mar-03 19:33N 37°41' E 023°45'8 8.4
2015-Mar-03 18:33N 37°33' E 023°44'9 8.9
2015-Mar-03 17:33N 37°24' E 023°42'  
Track history (hours):
 
Tides and Currents Weather Stations Pressure Air Temp Water Temp Dewpoint Dewpoint Depression Visibility Wind Speed Wind Dir Waves Ship Positions

Reecon Whale

Last reported at 2015-Mar-05 07:32 UTC. Time now 2015-Mar-07 01:43 UTC.
Position N 37°27' E 023°40'.

Length 145 m; draft 8.6 m.

Type: Ship. MMSI: 256579000.

Date/timePositionNaut miles runAvg speedWind from/ knotsBaromVisibWave heightAir tempDewpointWater temp
2015-Mar-05 07:32N 37°27' E 023°40'1111.5
2015-Mar-05 06:34N 37°38' E 023°42'1111.4
2015-Mar-05 05:34N 37°48' E 023°38'9 9.1
2015-Mar-05 04:34N 37°57' E 023°36'0 0.0
2015-Mar-05 03:33N 37°57' E 023°36'0 0.0
2015-Mar-05 02:33N 37°57' E 023°36'0 0.0
2015-Mar-05 01:33N 37°57' E 023°36'0 0.0
2015-Mar-05 00:33N 37°57' E 023°36'0 0.0
2015-Mar-04 23:33N 37°57' E 023°36'0 0.0
2015-Mar-04 22:33N 37°57' E 023°36'0 0.0
2015-Mar-04 21:33N 37°57' E 023°36'0 0.0
2015-Mar-04 20:33N 37°57' E 023°36'0 0.0
2015-Mar-04 19:33N 37°57' E 023°36'0 0.0
2015-Mar-04 18:33N 37°57' E 023°36'0 0.0
2015-Mar-04 17:33N 37°57' E 023°36'0 0.0
2015-Mar-04 16:33N 37°57' E 023°36'0 0.0
2015-Mar-04 15:33N 37°57' E 023°36'0 0.0
2015-Mar-04 14:30N 37°57' E 023°36'0 0.0
2015-Mar-04 13:33N 37°57' E 023°36'0 0.0
2015-Mar-04 12:33N 37°57' E 023°36'0 0.0
2015-Mar-04 11:33N 37°57' E 023°36'0 0.0
2015-Mar-04 10:33N 37°57' E 023°36'0 0.0
2015-Mar-04 09:33N 37°57' E 023°36'0 0.0
2015-Mar-04 08:30N 37°57' E 023°36'0 0.0
2015-Mar-04 07:33N 37°57' E 023°36'0 0.0
2015-Mar-04 06:33N 37°57' E 023°36'0 0.1
2015-Mar-04 05:33N 37°57' E 023°36'2 2.3
2015-Mar-04 04:33N 37°55' E 023°36'2 2.1
2015-Mar-04 03:32N 37°54' E 023°34'0 0.0
2015-Mar-04 02:32N 37°54' E 023°34'0 0.0
2015-Mar-04 01:32N 37°54' E 023°34'0 0.0
2015-Mar-04 00:32N 37°55' E 023°34'0 0.0
2015-Mar-03 23:32N 37°55' E 023°34'0 0.1
2015-Mar-03 22:32N 37°54' E 023°34'1 0.6
2015-Mar-03 21:33N 37°54' E 023°34'7 6.9
2015-Mar-03 20:33N 37°49' E 023°40'9 8.6
2015-Mar-03 19:33N 37°41' E 023°45'8 8.4
2015-Mar-03 18:33N 37°33' E 023°44'9 8.9
2015-Mar-03 17:33N 37°24' E 023°42'  

Dump ship's entire track history